Golden Hills, California
Current Conditions -  °F | °C
As of 12:55 PM on Sunday 21 Dec 2014 (Local Time) from KTSP Reporting Station
Light Rain Light Rain  
Wind Chill: 36°   Ceiling: 200
Heat Index: 45°   Visibility: 0mi
Dew Point: 45°   Wind: 21mph
Humidity: 100%   Direction: 310°NW
Pressure: 30.22"   Gusts: 25mph
Location:  35.1338°N, 118.552°W
Report Text: KTSP 212055Z AUTO 31018G22KT M1/4SM -RA OVC002 07/07 A3022 RMK AO2
Loading
Personal Weather Stations






























Interactive Weather Map New forecast layout! Learn more

10-Day Weather Forecast

Advertisements
Track Severe Weather on mobile